Time;durP1;ratioP1;P1;durP2;ratioP2;P2;SDS_P1;SDS_P2;PMS_P1;PMS_P2;Temp;Humidity;BMP_temperature;BMP_pressure;BME280_temperature;BME280_humidity;BME280_pressure;Samples;Min_cycle;Max_cycle;Signal;HPM_P1;HPM_P2
2022/12/11 00:02:22;;;;;;;21.60;11.83;;;-1.00;99.90;;;;;;5250893;28;20245;-51
2022/12/11 00:04:53;;;;;;;18.47;11.40;;;-1.00;99.90;;;;;;5248619;28;20528;-50
2022/12/11 00:07:23;;;;;;;24.20;13.70;;;-1.00;99.90;;;;;;5233332;28;20184;-51
2022/12/11 00:09:54;;;;;;;23.23;12.70;;;-1.00;99.90;;;;;;5227947;28;20691;-52
2022/12/11 00:12:25;;;;;;;25.83;11.33;;;-1.00;99.90;;;;;;5248661;28;20642;-50
2022/12/11 00:14:56;;;;;;;19.97;11.30;;;-1.00;99.90;;;;;;5224399;28;20211;-52
2022/12/11 00:17:26;;;;;;;22.07;11.30;;;-1.00;99.90;;;;;;5245337;28;20186;-51
2022/12/11 00:19:57;;;;;;;20.30;11.90;;;-1.00;99.90;;;;;;5220407;28;20198;-53
2022/12/11 00:22:29;;;;;;;25.63;11.43;;;-1.10;99.90;;;;;;5248367;28;20256;-51
2022/12/11 00:25:00;;;;;;;18.63;10.87;;;-1.10;99.90;;;;;;5235547;28;20182;-51
2022/12/11 00:27:31;;;;;;;21.37;12.43;;;-1.10;99.90;;;;;;5248231;28;20431;-52
2022/12/11 00:30:02;;;;;;;24.33;12.10;;;-1.10;99.90;;;;;;5231999;28;20212;-51
2022/12/11 00:32:33;;;;;;;24.33;11.10;;;-1.00;99.90;;;;;;5249471;28;20179;-52
2022/12/11 00:35:04;;;;;;;21.83;11.30;;;-1.10;99.90;;;;;;5248197;28;20485;-50
2022/12/11 00:37:35;;;;;;;19.53;10.87;;;-1.00;99.90;;;;;;5256413;28;20178;-52
2022/12/11 00:40:07;;;;;;;24.03;11.97;;;-1.00;99.90;;;;;;5229894;28;20450;-54
2022/12/11 00:42:38;;;;;;;20.90;12.47;;;-1.00;99.90;;;;;;5258574;28;20688;-52
2022/12/11 00:45:09;;;;;;;20.80;11.53;;;-1.10;99.90;;;;;;5231709;28;20433;-51
2022/12/11 00:47:39;;;;;;;19.57;11.73;;;-1.10;99.90;;;;;;5227281;28;20187;-52
2022/12/11 00:50:11;;;;;;;22.00;11.80;;;-1.10;99.90;;;;;;5228402;28;20817;-51
2022/12/11 00:52:41;;;;;;;21.00;12.40;;;-1.10;99.90;;;;;;5257849;28;20643;-50
2022/12/11 00:55:12;;;;;;;23.23;12.27;;;-1.00;99.90;;;;;;5233064;28;20443;-50
2022/12/11 00:57:43;;;;;;;23.80;11.17;;;-1.00;99.90;;;;;;5230458;28;20203;-51
2022/12/11 01:00:14;;;;;;;19.77;11.10;;;-1.00;99.90;;;;;;5253487;28;20628;-51
2022/12/11 01:02:44;;;;;;;15.70;11.13;;;-1.00;99.90;;;;;;5241438;28;20179;-50
2022/12/11 01:05:16;;;;;;;24.97;11.60;;;-1.00;99.90;;;;;;5231587;28;20436;-50
2022/12/11 01:07:46;;;;;;;20.17;12.23;;;-1.00;99.90;;;;;;5215903;28;20189;-53
2022/12/11 01:10:23;;;;;;;19.53;11.77;;;-1.00;99.90;;;;;;5232754;28;20458;-50
2022/12/11 01:13:04;;;;;;;29.80;12.30;;;-1.00;99.90;;;;;;5226929;28;20201;-49
2022/12/11 01:15:42;;;;;;;20.77;11.60;;;-1.00;99.90;;;;;;5259587;28;20458;-51
2022/12/11 01:18:14;;;;;;;34.93;12.93;;;-1.10;99.90;;;;;;5247394;28;20443;-49
2022/12/11 01:20:45;;;;;;;21.97;13.73;;;-1.10;99.90;;;;;;5247152;28;20476;-50
2022/12/11 01:23:16;;;;;;;19.90;12.40;;;-1.20;99.90;;;;;;5248971;28;20459;-51
2022/12/11 01:25:47;;;;;;;21.30;11.40;;;-1.10;99.90;;;;;;5245246;28;20210;-52
2022/12/11 01:28:17;;;;;;;16.70;11.63;;;-1.20;99.90;;;;;;5244219;28;20441;-50
2022/12/11 01:30:48;;;;;;;29.50;12.80;;;-1.10;99.90;;;;;;5236291;28;20215;-52
2022/12/11 01:33:19;;;;;;;21.10;11.60;;;-1.20;99.90;;;;;;5223194;28;20236;-51
2022/12/11 01:35:49;;;;;;;24.70;12.97;;;-1.10;99.90;;;;;;5246134;28;20206;-50
2022/12/11 01:38:20;;;;;;;20.20;11.37;;;-1.10;99.90;;;;;;5217888;28;20178;-53
2022/12/11 01:40:51;;;;;;;22.73;12.63;;;-1.10;99.90;;;;;;5223842;28;20206;-51
2022/12/11 01:43:22;;;;;;;18.07;11.00;;;-1.00;99.90;;;;;;5229647;28;20258;-49
2022/12/11 01:45:52;;;;;;;25.83;13.57;;;-1.10;99.90;;;;;;5246952;28;20187;-51
2022/12/11 01:48:28;;;;;;;22.53;13.43;;;-1.10;99.90;;;;;;5230293;28;20230;-51
2022/12/11 01:51:03;;;;;;;29.80;13.57;;;-1.10;99.90;;;;;;5228308;28;20218;-51
2022/12/11 01:53:37;;;;;;;24.60;12.97;;;-1.20;99.90;;;;;;5227982;28;20483;-51
2022/12/11 01:56:09;;;;;;;22.00;11.43;;;-1.30;99.90;;;;;;5244670;28;20487;-50
2022/12/11 01:58:54;;;;;;;28.77;12.83;;;-1.20;99.90;;;;;;5213852;28;20436;-52
2022/12/11 02:01:56;;;;;;;30.40;12.57;;;-1.20;99.90;;;;;;5250888;28;20445;-51
2022/12/11 02:04:28;;;;;;;21.30;11.40;;;-1.20;99.90;;;;;;5220567;28;20431;-51
2022/12/11 02:06:59;;;;;;;22.33;12.83;;;-1.20;99.90;;;;;;5251850;28;20428;-50
2022/12/11 02:09:32;;;;;;;19.60;12.13;;;-1.20;99.90;;;;;;5246666;28;20456;-51
2022/12/11 02:12:51;;;;;;;24.93;13.10;;;-1.20;99.90;;;;;;5248404;28;20184;-52
2022/12/11 02:15:41;;;;;;;20.77;12.33;;;-1.20;99.90;;;;;;5221019;28;21060;-53
2022/12/11 02:18:35;;;;;;;26.47;14.20;;;-1.30;99.90;;;;;;5238605;28;20784;-50
2022/12/11 02:21:16;;;;;;;25.03;13.40;;;-1.20;99.90;;;;;;5242303;28;20472;-51
2022/12/11 02:24:11;;;;;;;21.87;11.83;;;-1.20;99.90;;;;;;5247040;28;20432;-50
2022/12/11 02:27:16;;;;;;;25.37;12.60;;;-1.20;99.90;;;;;;5249320;28;20432;-48
2022/12/11 02:30:06;;;;;;;19.07;11.90;;;-1.20;99.90;;;;;;5230057;28;21009;-50
2022/12/11 02:32:46;;;;;;;30.67;15.23;;;-1.20;99.90;;;;;;5222237;28;20436;-48
2022/12/11 02:35:33;;;;;;;25.50;12.20;;;-1.20;99.90;;;;;;5247105;28;22707;-50
2022/12/11 02:38:13;;;;;;;23.30;12.37;;;-1.30;99.90;;;;;;5248199;28;20436;-52
2022/12/11 02:40:48;;;;;;;23.17;12.10;;;-1.30;99.90;;;;;;5249079;28;20467;-50
2022/12/11 02:43:20;;;;;;;22.00;12.67;;;-1.30;99.90;;;;;;5245993;28;20777;-51
2022/12/11 02:45:53;;;;;;;23.27;12.40;;;-1.30;99.90;;;;;;5229051;28;20470;-52
2022/12/11 02:48:23;;;;;;;24.87;13.27;;;-1.30;99.90;;;;;;5242665;28;21035;-51
2022/12/11 02:50:56;;;;;;;26.13;13.10;;;-1.30;99.90;;;;;;5231454;28;20464;-51
2022/12/11 02:53:30;;;;;;;25.80;12.40;;;-1.40;99.90;;;;;;5251466;28;20283;-50
2022/12/11 02:56:15;;;;;;;23.37;12.77;;;-1.30;99.90;;;;;;5235689;28;20456;-53
2022/12/11 02:58:49;;;;;;;18.30;12.60;;;-1.30;99.90;;;;;;5248682;28;20890;-49
2022/12/11 03:01:20;;;;;;;23.10;13.20;;;-1.30;99.90;;;;;;5240414;28;20502;-52
2022/12/11 03:03:55;;;;;;;24.20;12.60;;;-1.30;99.90;;;;;;5229167;28;20432;-49
2022/12/11 03:06:31;;;;;;;18.97;11.80;;;-1.30;99.90;;;;;;5244877;28;20427;-50
2022/12/11 03:09:03;;;;;;;27.97;14.27;;;-1.20;99.90;;;;;;5246445;28;20432;-49
2022/12/11 03:11:34;;;;;;;20.57;12.20;;;-1.20;99.90;;;;;;5222400;28;20445;-49
2022/12/11 03:14:06;;;;;;;33.17;13.67;;;-1.20;99.90;;;;;;5224664;28;20445;-51
2022/12/11 03:16:41;;;;;;;31.10;13.60;;;-1.20;99.90;;;;;;5208305;28;20278;-49
2022/12/11 03:19:23;;;;;;;25.20;12.37;;;-1.20;99.90;;;;;;5245861;28;20449;-48
2022/12/11 03:22:01;;;;;;;25.90;12.73;;;-1.10;99.90;;;;;;5210944;28;20472;-50
2022/12/11 03:24:57;;;;;;;24.40;13.23;;;-1.20;99.90;;;;;;5251590;28;20440;-49
2022/12/11 03:27:40;;;;;;;26.07;12.47;;;-1.10;99.90;;;;;;5247703;28;20476;-49
2022/12/11 03:30:15;;;;;;;25.57;13.63;;;-1.10;99.90;;;;;;5237179;28;20478;-51
2022/12/11 03:32:56;;;;;;;23.10;13.37;;;-1.20;99.90;;;;;;5225445;28;20454;-51
2022/12/11 03:35:27;;;;;;;23.80;12.60;;;-1.10;99.90;;;;;;5227174;28;20607;-50
2022/12/11 03:38:04;;;;;;;27.50;12.80;;;-1.20;99.90;;;;;;5245217;28;20991;-51
2022/12/11 03:40:37;;;;;;;29.00;12.40;;;-1.20;99.90;;;;;;5241197;28;20289;-48
2022/12/11 03:43:10;;;;;;;41.53;13.90;;;-1.20;99.90;;;;;;5224707;28;20435;-50
2022/12/11 03:45:42;;;;;;;20.30;12.10;;;-1.20;99.90;;;;;;5238600;28;20802;-50
2022/12/11 03:48:15;;;;;;;27.03;14.33;;;-1.30;99.90;;;;;;5212708;28;20919;-51
2022/12/11 03:50:47;;;;;;;27.33;12.83;;;-1.30;99.90;;;;;;5228561;28;20477;-50
2022/12/11 03:53:19;;;;;;;28.83;12.53;;;-1.30;99.90;;;;;;5243146;28;20510;-51
2022/12/11 03:55:50;;;;;;;25.30;13.80;;;-1.30;99.90;;;;;;5230065;28;20476;-51
2022/12/11 03:58:21;;;;;;;28.37;13.40;;;-1.40;99.90;;;;;;5223858;28;20448;-51
2022/12/11 04:00:52;;;;;;;24.70;13.03;;;-1.40;99.90;;;;;;5221205;28;21106;-50
2022/12/11 04:03:23;;;;;;;24.67;12.83;;;-1.40;99.90;;;;;;5239454;28;20190;-52
2022/12/11 04:05:55;;;;;;;22.53;12.33;;;-1.30;99.90;;;;;;5242598;28;20258;-51
2022/12/11 04:08:25;;;;;;;22.37;12.83;;;-1.30;99.90;;;;;;5221751;28;20968;-51
2022/12/11 04:15:00;;;;;;;26.33;12.63;;;-1.20;99.90;;;;;;5244518;28;20618;-51
2022/12/11 04:16:36;;;;;;;23.43;13.67;;;-1.20;99.90;;;;;;5244213;28;20471;-51
2022/12/11 04:24:49;;;;;;;36.27;14.40;;;-1.30;99.90;;;;;;5246798;28;20439;-50
2022/12/11 04:30:14;;;;;;;23.97;14.53;;;-1.20;99.90;;;;;;5233182;28;20511;-51
2022/12/11 04:32:45;;;;;;;26.33;13.63;;;-1.20;99.90;;;;;;5240749;28;20444;-52
2022/12/11 04:35:16;;;;;;;28.63;15.70;;;-1.30;99.90;;;;;;5246447;28;20778;-51
2022/12/11 04:37:47;;;;;;;26.40;14.20;;;-1.20;99.90;;;;;;5228651;28;20617;-49
2022/12/11 04:40:19;;;;;;;28.53;14.17;;;-1.20;99.90;;;;;;5223756;28;20445;-49
2022/12/11 04:42:50;;;;;;;26.03;14.67;;;-1.20;99.90;;;;;;5247330;28;20833;-49
2022/12/11 04:45:20;;;;;;;34.03;14.20;;;-1.10;99.90;;;;;;5229625;28;20438;-51
2022/12/11 04:47:51;;;;;;;30.23;14.30;;;-1.20;99.90;;;;;;5243754;28;20245;-49
2022/12/11 04:50:22;;;;;;;26.50;14.50;;;-1.20;99.90;;;;;;5228189;28;20205;-50
2022/12/11 04:52:56;;;;;;;23.13;13.03;;;-1.10;99.90;;;;;;5228696;28;20190;-50
2022/12/11 04:55:27;;;;;;;22.53;13.53;;;-1.20;99.90;;;;;;5229800;28;20205;-49
2022/12/11 04:57:58;;;;;;;23.53;14.30;;;-1.20;99.90;;;;;;5249218;28;20440;-51
2022/12/11 05:00:28;;;;;;;27.70;13.47;;;-1.30;99.90;;;;;;5240030;28;20271;-51
2022/12/11 05:02:59;;;;;;;24.70;13.40;;;-1.30;99.90;;;;;;5217576;28;20176;-50
2022/12/11 05:05:30;;;;;;;27.63;13.00;;;-1.40;99.90;;;;;;5247486;28;20597;-50
2022/12/11 05:08:01;;;;;;;24.37;14.93;;;-1.30;99.90;;;;;;5244191;28;20197;-48
2022/12/11 05:10:31;;;;;;;31.63;14.10;;;-1.30;99.90;;;;;;5246164;28;20240;-49
2022/12/11 05:13:02;;;;;;;29.03;14.40;;;-1.50;99.90;;;;;;5244578;28;20259;-50
2022/12/11 05:15:33;;;;;;;25.53;13.53;;;-1.40;99.90;;;;;;5242634;28;20261;-50
2022/12/11 05:18:04;;;;;;;28.03;13.93;;;-1.50;99.90;;;;;;5209272;28;20179;-48
2022/12/11 05:20:34;;;;;;;32.53;13.47;;;-1.50;99.90;;;;;;5247764;28;20194;-50
2022/12/11 05:23:05;;;;;;;27.20;14.33;;;-1.50;99.90;;;;;;5242884;28;20186;-49
2022/12/11 05:25:36;;;;;;;31.10;13.83;;;-1.40;99.90;;;;;;5242360;28;20190;-50
2022/12/11 05:28:06;;;;;;;30.37;14.03;;;-1.50;99.90;;;;;;5246080;28;20185;-51
2022/12/11 05:30:37;;;;;;;22.97;13.57;;;-1.40;99.90;;;;;;5242451;28;20214;-47
2022/12/11 05:33:08;;;;;;;25.57;14.47;;;-1.40;99.90;;;;;;5240481;28;20262;-51
2022/12/11 05:35:38;;;;;;;26.73;14.60;;;-1.50;99.90;;;;;;5241637;28;20586;-50
2022/12/11 05:38:09;;;;;;;36.33;15.27;;;-1.50;99.90;;;;;;5247612;28;20668;-48
2022/12/11 05:40:40;;;;;;;28.53;15.20;;;-1.50;99.90;;;;;;5226097;28;20198;-49
2022/12/11 05:43:10;;;;;;;29.80;15.50;;;-1.50;99.90;;;;;;5237942;28;20204;-51
2022/12/11 05:45:41;;;;;;;32.57;16.30;;;-1.50;99.90;;;;;;5232320;28;20201;-50
2022/12/11 05:48:12;;;;;;;28.60;16.90;;;-1.50;99.90;;;;;;5232478;28;20182;-49
2022/12/11 05:50:42;;;;;;;39.57;17.33;;;-1.50;99.90;;;;;;5243248;28;20252;-50
2022/12/11 05:53:13;;;;;;;34.73;16.60;;;-1.30;99.90;;;;;;5242804;28;20266;-49
2022/12/11 05:55:44;;;;;;;34.40;15.67;;;-1.30;99.90;;;;;;5232330;28;20225;-50
2022/12/11 05:58:14;;;;;;;28.60;16.13;;;-1.40;99.90;;;;;;5241720;28;20645;-51
2022/12/11 06:00:46;;;;;;;29.40;13.90;;;-1.40;99.90;;;;;;5226126;28;20202;-50
2022/12/11 06:03:17;;;;;;;28.03;15.07;;;-1.40;99.90;;;;;;5238139;28;20185;-49
2022/12/11 06:05:48;;;;;;;33.73;14.67;;;-1.50;99.90;;;;;;5243953;28;20921;-48
2022/12/11 06:08:18;;;;;;;24.50;13.77;;;-1.50;99.90;;;;;;5233736;28;20190;-48
2022/12/11 06:10:50;;;;;;;22.53;14.50;;;-1.50;99.90;;;;;;5239468;28;20455;-48
2022/12/11 06:13:20;;;;;;;28.73;14.67;;;-1.50;99.90;;;;;;5228688;28;20312;-51
2022/12/11 06:15:51;;;;;;;22.33;13.30;;;-1.50;99.90;;;;;;5231795;28;21355;-47
2022/12/11 06:18:22;;;;;;;28.97;13.53;;;-1.50;99.90;;;;;;5224821;28;20265;-48
2022/12/11 06:20:53;;;;;;;21.77;13.13;;;-1.50;99.90;;;;;;5228660;28;20509;-49
2022/12/11 06:23:24;;;;;;;24.40;13.40;;;-1.60;99.90;;;;;;5225978;28;20458;-49
2022/12/11 06:25:54;;;;;;;18.07;11.87;;;-1.50;99.90;;;;;;5243400;28;20193;-50
2022/12/11 06:28:25;;;;;;;31.43;13.70;;;-1.50;99.90;;;;;;5223557;28;20707;-50
2022/12/11 06:31:00;;;;;;;22.40;13.20;;;-1.60;99.90;;;;;;5222805;28;20340;-48
2022/12/11 06:33:31;;;;;;;20.00;11.50;;;-1.70;99.90;;;;;;5227804;28;20178;-48
2022/12/11 06:36:07;;;;;;;22.83;12.23;;;-1.70;99.90;;;;;;5227523;28;20705;-50
2022/12/11 06:38:38;;;;;;;21.70;12.03;;;-1.70;99.90;;;;;;5225060;28;20439;-48
2022/12/11 06:41:10;;;;;;;23.27;12.57;;;-1.70;99.90;;;;;;5225608;28;20499;-49
2022/12/11 06:43:44;;;;;;;20.10;11.40;;;-1.60;99.90;;;;;;5224112;28;20556;-49
2022/12/11 06:46:18;;;;;;;27.63;11.83;;;-1.60;99.90;;;;;;5249354;28;20445;-49
2022/12/11 06:48:49;;;;;;;25.87;12.23;;;-1.60;99.90;;;;;;5243633;28;20448;-48
2022/12/11 06:51:22;;;;;;;25.03;12.00;;;-1.70;99.90;;;;;;5229315;28;20483;-48
2022/12/11 06:53:55;;;;;;;16.07;9.80;;;-1.70;99.90;;;;;;5247092;28;20444;-48
2022/12/11 06:56:25;;;;;;;19.30;11.07;;;-1.80;99.90;;;;;;5245069;28;20615;-47
2022/12/11 06:58:56;;;;;;;18.07;9.97;;;-1.80;99.90;;;;;;5230088;28;20467;-49
2022/12/11 07:01:27;;;;;;;23.73;11.17;;;-1.80;99.90;;;;;;5232582;28;20701;-47
2022/12/11 07:03:59;;;;;;;19.00;10.63;;;-1.90;99.90;;;;;;5238881;28;20227;-50
2022/12/11 07:06:30;;;;;;;13.83;9.77;;;-1.90;99.90;;;;;;5230297;28;20429;-48
2022/12/11 07:09:04;;;;;;;16.60;9.33;;;-2.00;99.90;;;;;;5227605;28;20425;-49
2022/12/11 07:11:35;;;;;;;18.00;10.33;;;-1.80;99.90;;;;;;5246962;28;20190;-51
2022/12/11 07:14:05;;;;;;;11.87;9.10;;;-2.00;99.90;;;;;;5240675;28;20438;-47
2022/12/11 07:16:36;;;;;;;14.73;9.70;;;-1.80;99.90;;;;;;5237844;28;20889;-49
2022/12/11 07:19:07;;;;;;;22.30;10.83;;;-1.80;99.90;;;;;;5229324;28;20193;-49
2022/12/11 07:21:37;;;;;;;15.33;9.60;;;-1.90;99.90;;;;;;5246435;28;20178;-48
2022/12/11 07:24:08;;;;;;;21.80;9.70;;;-1.90;99.90;;;;;;5230327;28;20571;-46
2022/12/11 07:26:39;;;;;;;20.03;9.10;;;-2.00;99.90;;;;;;5228735;28;20191;-48
2022/12/11 07:29:10;;;;;;;16.63;9.67;;;-2.00;99.90;;;;;;5231255;28;20231;-46
2022/12/11 07:31:41;;;;;;;16.13;9.53;;;-2.00;99.90;;;;;;5229686;28;20182;-50
2022/12/11 07:34:13;;;;;;;16.23;9.17;;;-2.00;99.90;;;;;;5230038;28;20517;-47
2022/12/11 07:36:43;;;;;;;18.70;9.50;;;-2.10;99.90;;;;;;5248644;28;20533;-49
2022/12/11 07:39:14;;;;;;;15.83;10.43;;;-2.10;99.90;;;;;;5214018;28;20459;-47
2022/12/11 07:41:45;;;;;;;16.53;10.33;;;-2.20;99.90;;;;;;5247065;28;20179;-48
2022/12/11 07:44:16;;;;;;;15.77;9.70;;;-2.20;99.90;;;;;;5228331;28;20539;-47
2022/12/11 07:46:47;;;;;;;14.33;9.10;;;-2.20;99.90;;;;;;5250562;28;20892;-45
2022/12/11 07:49:18;;;;;;;20.90;10.37;;;-2.10;99.90;;;;;;5228764;28;20250;-50
2022/12/11 07:51:48;;;;;;;16.27;9.47;;;-2.10;99.90;;;;;;5247734;28;20232;-50
2022/12/11 07:54:19;;;;;;;23.50;9.20;;;-2.00;99.90;;;;;;5246449;28;20182;-48
2022/12/11 07:56:50;;;;;;;15.20;9.90;;;-1.90;99.90;;;;;;5233462;28;20214;-51
2022/12/11 07:59:21;;;;;;;17.50;9.70;;;-2.00;99.90;;;;;;5248846;28;20488;-45
2022/12/11 08:01:52;;;;;;;15.97;8.97;;;-2.00;99.90;;;;;;5237147;28;20189;-47
2022/12/11 08:04:22;;;;;;;12.23;8.50;;;-1.90;99.90;;;;;;5230417;28;20236;-48
2022/12/11 08:06:53;;;;;;;20.90;9.87;;;-1.90;99.90;;;;;;5251577;28;20288;-47
2022/12/11 08:09:24;;;;;;;15.30;9.33;;;-2.00;99.90;;;;;;5232099;28;20206;-46
2022/12/11 08:11:55;;;;;;;17.73;11.30;;;-2.00;99.90;;;;;;5250653;28;20197;-50
2022/12/11 08:14:25;;;;;;;15.67;9.93;;;-2.00;99.90;;;;;;5230874;28;20233;-47
2022/12/11 08:16:58;;;;;;;18.73;10.10;;;-2.00;99.90;;;;;;5250129;28;20468;-49
2022/12/11 08:19:29;;;;;;;14.77;8.70;;;-2.00;99.90;;;;;;5254249;28;20243;-49
2022/12/11 08:22:00;;;;;;;16.67;10.23;;;-2.00;99.90;;;;;;5251259;28;20424;-50
2022/12/11 08:24:31;;;;;;;17.20;9.63;;;-2.10;99.90;;;;;;5234102;28;20324;-49
2022/12/11 08:27:02;;;;;;;15.73;10.10;;;-2.10;99.90;;;;;;5250716;28;20182;-47
2022/12/11 08:29:32;;;;;;;16.43;9.50;;;-2.10;99.90;;;;;;5230585;28;20471;-50
2022/12/11 08:32:03;;;;;;;15.63;9.90;;;-2.00;99.90;;;;;;5245027;28;20209;-46
2022/12/11 08:34:34;;;;;;;21.67;10.67;;;-1.90;99.90;;;;;;5250863;28;20410;-53
2022/12/11 08:37:05;;;;;;;20.40;9.00;;;-1.90;99.90;;;;;;5244336;28;20505;-47
2022/12/11 08:39:36;;;;;;;22.30;10.00;;;-1.80;99.90;;;;;;5232166;28;20456;-52
2022/12/11 08:42:07;;;;;;;18.73;10.50;;;-1.90;99.90;;;;;;5248024;28;20708;-48
2022/12/11 08:44:38;;;;;;;17.67;10.33;;;-2.00;99.90;;;;;;5239953;28;20432;-53
2022/12/11 08:47:08;;;;;;;17.30;9.77;;;-2.00;99.90;;;;;;5242244;28;20954;-48
2022/12/11 08:49:39;;;;;;;20.40;10.97;;;-1.90;99.90;;;;;;5222901;28;20206;-48
2022/12/11 08:52:10;;;;;;;14.70;9.00;;;-1.90;99.90;;;;;;5246972;28;20186;-47
2022/12/11 08:54:41;;;;;;;11.53;8.50;;;-1.90;99.90;;;;;;5230005;28;20513;-49
2022/12/11 08:57:11;;;;;;;15.33;9.40;;;-1.80;99.90;;;;;;5244999;28;20259;-48
2022/12/11 08:59:42;;;;;;;15.83;9.40;;;-1.70;99.90;;;;;;5245316;28;20267;-48
2022/12/11 09:02:13;;;;;;;14.60;9.07;;;-1.70;99.90;;;;;;5226677;28;20226;-47
2022/12/11 09:04:44;;;;;;;18.07;9.30;;;-1.70;99.90;;;;;;5226117;28;20171;-50
2022/12/11 09:07:14;;;;;;;21.30;9.03;;;-1.70;99.90;;;;;;5247232;28;20404;-53
2022/12/11 09:09:45;;;;;;;13.20;8.33;;;-1.50;99.90;;;;;;5242278;28;20560;-47
2022/12/11 09:12:16;;;;;;;17.60;9.03;;;-1.60;99.90;;;;;;5220566;28;20602;-49
2022/12/11 09:14:47;;;;;;;13.83;8.60;;;-1.40;99.90;;;;;;5243442;28;20545;-47
2022/12/11 09:17:17;;;;;;;14.03;9.70;;;-1.40;99.90;;;;;;5238137;28;20223;-48
2022/12/11 09:19:48;;;;;;;17.70;8.63;;;-1.30;99.90;;;;;;5249624;28;20710;-47
2022/12/11 09:22:19;;;;;;;15.23;8.30;;;-1.40;99.90;;;;;;5224213;28;20175;-51
2022/12/11 09:24:50;;;;;;;15.77;9.30;;;-1.30;99.90;;;;;;5228012;28;20183;-49
2022/12/11 09:27:21;;;;;;;12.90;8.40;;;-1.30;99.90;;;;;;5244574;28;20174;-51
2022/12/11 09:29:51;;;;;;;14.13;9.20;;;-1.40;99.90;;;;;;5245357;28;20698;-46
2022/12/11 09:32:22;;;;;;;18.13;9.47;;;-1.50;99.90;;;;;;5224024;28;20459;-48
2022/12/11 09:34:53;;;;;;;14.00;9.30;;;-1.60;99.90;;;;;;5227290;28;20210;-49
2022/12/11 09:37:23;;;;;;;19.70;10.77;;;-1.50;99.90;;;;;;5245924;28;20217;-46
2022/12/11 09:39:54;;;;;;;20.30;11.10;;;-1.50;99.90;;;;;;5239718;28;20195;-49
2022/12/11 09:42:50;;;;;;;16.20;9.87;;;-1.50;99.90;;;;;;5228025;28;20175;-48
2022/12/11 09:45:21;;;;;;;15.77;10.80;;;-1.50;99.90;;;;;;5225016;28;20198;-49
2022/12/11 09:47:55;;;;;;;17.90;8.97;;;-1.30;99.90;;;;;;5229485;28;20811;-47
2022/12/11 09:50:33;;;;;;;14.47;10.57;;;-1.30;99.90;;;;;;5241486;28;20694;-48
2022/12/11 09:53:16;;;;;;;16.53;9.43;;;-1.40;99.90;;;;;;5222672;28;20507;-47
2022/12/11 09:56:02;;;;;;;17.63;11.97;;;-1.40;99.90;;;;;;5223174;28;20468;-48
2022/12/11 09:59:00;;;;;;;16.30;9.27;;;-1.40;99.90;;;;;;5225697;28;20483;-46
2022/12/11 10:01:46;;;;;;;16.60;9.43;;;-1.50;99.90;;;;;;5238106;28;20429;-48
2022/12/11 10:04:29;;;;;;;16.07;10.30;;;-1.50;99.90;;;;;;5225686;28;20436;-47
2022/12/11 10:07:16;;;;;;;14.70;9.40;;;-1.40;99.90;;;;;;5226173;28;20523;-47
2022/12/11 10:10:32;;;;;;;16.53;9.70;;;-1.30;99.90;;;;;;5248226;28;20456;-47
2022/12/11 10:13:15;;;;;;;25.60;9.10;;;-1.30;99.90;;;;;;5183914;28;20917;-47
2022/12/11 10:16:18;;;;;;;16.70;9.40;;;-1.20;99.90;;;;;;5221238;28;20452;-47
2022/12/11 10:18:50;;;;;;;18.37;9.63;;;-1.20;99.90;;;;;;5226550;28;20439;-49
2022/12/11 10:21:21;;;;;;;16.30;9.90;;;-1.30;99.90;;;;;;5224804;28;20448;-48
2022/12/11 10:23:57;;;;;;;14.30;8.60;;;-1.20;99.90;;;;;;5248736;28;20432;-47
2022/12/11 10:26:28;;;;;;;23.97;10.90;;;-1.20;99.90;;;;;;5224143;28;20523;-47
2022/12/11 10:29:01;;;;;;;15.70;9.87;;;-1.10;99.90;;;;;;5228998;28;20518;-51
2022/12/11 10:31:43;;;;;;;21.00;10.43;;;-1.20;99.90;;;;;;5225080;28;20444;-53
2022/12/11 10:34:23;;;;;;;16.33;9.53;;;-1.30;99.90;;;;;;5221497;28;20444;-53
2022/12/11 10:36:54;;;;;;;19.03;9.37;;;-1.30;99.90;;;;;;5223437;28;20983;-51
2022/12/11 10:39:26;;;;;;;18.33;10.00;;;-1.40;99.90;;;;;;5240187;28;20819;-49
2022/12/11 10:41:57;;;;;;;19.50;11.10;;;-1.30;99.90;;;;;;5253437;28;20451;-48
2022/12/11 10:44:29;;;;;;;24.70;12.20;;;-1.40;99.90;;;;;;5225819;28;20436;-47
2022/12/11 10:47:10;;;;;;;17.50;9.70;;;-1.40;99.90;;;;;;5239146;28;20432;-47
2022/12/11 10:49:57;;;;;;;19.47;9.97;;;-1.40;99.90;;;;;;5226683;28;20525;-48
2022/12/11 10:52:37;;;;;;;21.10;10.70;;;-1.40;99.90;;;;;;5246719;28;20443;-47
2022/12/11 10:55:29;;;;;;;13.20;9.03;;;-1.50;99.90;;;;;;5243693;28;20499;-51
2022/12/11 10:58:04;;;;;;;16.90;9.43;;;-1.50;99.90;;;;;;5226506;28;20443;-54
2022/12/11 11:00:40;;;;;;;17.13;9.87;;;-1.30;99.90;;;;;;5236842;28;20472;-51
2022/12/11 11:03:50;;;;;;;18.30;9.87;;;-1.40;99.90;;;;;;5228759;28;20453;-51
2022/12/11 11:06:23;;;;;;;16.53;10.40;;;-1.30;99.90;;;;;;5233317;28;20443;-48
2022/12/11 11:08:56;;;;;;;17.87;9.40;;;-1.30;99.90;;;;;;5216230;28;20447;-46
2022/12/11 11:11:34;;;;;;;18.03;11.23;;;-1.20;99.90;;;;;;5257431;28;20782;-47
2022/12/11 11:14:18;;;;;;;19.43;10.27;;;-1.30;99.90;;;;;;5217912;28;20523;-48
2022/12/11 11:16:51;;;;;;;15.40;9.20;;;-1.20;99.90;;;;;;5233787;28;20987;-49
2022/12/11 11:19:32;;;;;;;18.50;10.30;;;-1.10;99.90;;;;;;5227083;28;20853;-50
2022/12/11 11:22:15;;;;;;;17.67;9.13;;;-1.00;99.90;;;;;;5244258;28;20428;-48
2022/12/11 11:24:57;;;;;;;19.93;11.03;;;-1.00;99.90;;;;;;5230974;28;20537;-52
2022/12/11 11:27:34;;;;;;;26.03;9.90;;;-1.00;99.90;;;;;;5245965;28;20504;-50
2022/12/11 11:30:18;;;;;;;13.10;9.20;;;-1.00;99.90;;;;;;5248667;28;20456;-50
2022/12/11 11:33:18;;;;;;;17.53;11.17;;;-1.00;99.90;;;;;;5237177;28;20481;-48
2022/12/11 11:35:54;;;;;;;17.97;9.63;;;-1.00;99.90;;;;;;5230771;28;20510;-47
2022/12/11 11:38:39;;;;;;;15.57;9.33;;;-1.10;99.90;;;;;;5261373;28;20814;-48
2022/12/11 11:41:24;;;;;;;17.20;8.40;;;-1.10;99.90;;;;;;5235478;28;20817;-48
2022/12/11 11:44:03;;;;;;;15.80;8.80;;;-1.30;99.90;;;;;;5232128;28;20432;-55
2022/12/11 11:46:46;;;;;;;16.80;10.57;;;-1.20;99.90;;;;;;5229920;28;20424;-49
2022/12/11 11:49:48;;;;;;;18.80;10.40;;;-1.10;99.90;;;;;;5256986;28;20446;-51
2022/12/11 11:52:35;;;;;;;14.60;8.03;;;-1.10;99.90;;;;;;5250869;28;20430;-48
2022/12/11 11:55:21;;;;;;;19.80;10.27;;;-1.10;99.90;;;;;;5238515;28;20440;-48
2022/12/11 11:58:01;;;;;;;14.83;9.63;;;-1.00;99.90;;;;;;5257687;28;20794;-47
2022/12/11 12:00:32;;;;;;;22.50;11.20;;;-1.00;99.90;;;;;;5244736;28;20875;-48
2022/12/11 12:03:09;;;;;;;16.30;9.40;;;-1.00;99.90;;;;;;5255448;28;20576;-47
2022/12/11 12:06:11;;;;;;;19.60;10.10;;;-0.90;99.90;;;;;;5254591;28;20201;-51
2022/12/11 12:09:08;;;;;;;20.07;10.73;;;-0.90;99.90;;;;;;5247146;28;20520;-49
2022/12/11 12:11:51;;;;;;;15.87;9.27;;;-0.90;99.90;;;;;;5247396;28;20525;-48
2022/12/11 12:14:34;;;;;;;13.67;9.50;;;-0.90;99.90;;;;;;5235458;28;20944;-51
2022/12/11 12:17:07;;;;;;;17.90;10.70;;;-0.80;99.90;;;;;;5246123;28;20477;-47
2022/12/11 12:20:04;;;;;;;19.63;10.93;;;-0.70;99.90;;;;;;5257566;28;20444;-50
2022/12/11 12:23:04;;;;;;;15.90;9.40;;;-0.50;99.90;;;;;;5248520;28;20435;-48
2022/12/11 12:25:44;;;;;;;16.50;9.40;;;-0.60;99.90;;;;;;5257667;28;20416;-48
2022/12/11 12:28:21;;;;;;;14.33;8.87;;;-0.70;99.90;;;;;;5254048;28;20428;-49
2022/12/11 12:31:01;;;;;;;17.60;10.17;;;-0.80;99.90;;;;;;5246693;28;20468;-48
2022/12/11 12:33:46;;;;;;;23.83;10.50;;;-0.70;99.90;;;;;;5235460;28;20939;-47
2022/12/11 12:36:50;;;;;;;21.63;10.70;;;-0.50;99.90;;;;;;5237740;28;20464;-49
2022/12/11 12:39:29;;;;;;;22.13;10.80;;;-0.50;99.90;;;;;;5215048;28;20507;-49
2022/12/11 12:42:21;;;;;;;13.73;8.97;;;-0.40;99.90;;;;;;5255826;28;20934;-48
2022/12/11 12:45:09;;;;;;;15.63;9.37;;;-0.50;99.90;;;;;;5255893;28;20496;-47
2022/12/11 12:47:43;;;;;;;15.83;9.80;;;-0.30;99.90;;;;;;5252354;28;20482;-52
2022/12/11 12:50:21;;;;;;;17.37;9.77;;;-0.20;99.90;;;;;;5220247;28;20491;-51
2022/12/11 12:52:54;;;;;;;19.10;9.70;;;-0.30;99.90;;;;;;5228113;28;20872;-47
2022/12/11 12:55:30;;;;;;;17.03;9.97;;;-0.30;99.90;;;;;;5220725;28;20493;-47
2022/12/11 12:58:04;;;;;;;20.77;10.50;;;-0.30;99.90;;;;;;5226468;28;20431;-50
2022/12/11 13:00:42;;;;;;;24.43;10.70;;;-0.20;99.90;;;;;;5249700;28;20547;-50
2022/12/11 13:03:19;;;;;;;15.07;9.80;;;-0.10;99.90;;;;;;5244051;28;20433;-49
2022/12/11 13:06:00;;;;;;;19.80;10.50;;;-0.20;99.90;;;;;;5232276;28;21023;-47
2022/12/11 13:08:41;;;;;;;27.90;10.17;;;-0.20;99.90;;;;;;5228204;28;20493;-50
2022/12/11 13:11:15;;;;;;;13.70;9.53;;;-0.40;99.90;;;;;;5252005;28;20453;-50
2022/12/11 13:14:00;;;;;;;14.90;10.30;;;-0.50;99.90;;;;;;5256574;28;20451;-51
2022/12/11 13:16:47;;;;;;;18.73;10.90;;;-0.50;99.90;;;;;;5246919;28;20462;-55
2022/12/11 13:19:26;;;;;;;23.40;10.93;;;-0.40;99.90;;;;;;5229726;28;20430;-50
2022/12/11 13:22:13;;;;;;;21.20;9.40;;;-0.40;99.90;;;;;;5253163;28;20494;-48
2022/12/11 13:25:00;;;;;;;18.40;10.63;;;-0.40;99.90;;;;;;5244383;28;20860;-47